sensor_id;sensor_type;location;lat;lon;timestamp;P1;durP1;ratioP1;P2;durP2;ratioP2
20711;SDS011;10517;50.742;4.224;2023-04-16T00:00:42;9.27;;;3.53;;
20711;SDS011;10517;50.742;4.224;2023-04-16T00:03:08;16.13;;;4.63;;
20711;SDS011;10517;50.742;4.224;2023-04-16T00:05:34;9.20;;;3.87;;
20711;SDS011;10517;50.742;4.224;2023-04-16T00:07:59;3.83;;;2.97;;
20711;SDS011;10517;50.742;4.224;2023-04-16T00:10:25;8.17;;;3.40;;
20711;SDS011;10517;50.742;4.224;2023-04-16T00:12:51;3.10;;;2.53;;
20711;SDS011;10517;50.742;4.224;2023-04-16T00:15:17;5.07;;;2.83;;
20711;SDS011;10517;50.742;4.224;2023-04-16T00:17:42;8.23;;;2.93;;
20711;SDS011;10517;50.742;4.224;2023-04-16T00:20:08;3.93;;;2.60;;
20711;SDS011;10517;50.742;4.224;2023-04-16T00:22:34;5.63;;;2.63;;
20711;SDS011;10517;50.742;4.224;2023-04-16T00:25:00;3.03;;;2.27;;
20711;SDS011;10517;50.742;4.224;2023-04-16T00:27:25;7.23;;;2.70;;
20711;SDS011;10517;50.742;4.224;2023-04-16T00:29:51;8.97;;;2.90;;
20711;SDS011;10517;50.742;4.224;2023-04-16T00:32:16;5.83;;;2.13;;
20711;SDS011;10517;50.742;4.224;2023-04-16T00:34:42;11.77;;;2.53;;
20711;SDS011;10517;50.742;4.224;2023-04-16T00:37:08;0.97;;;0.90;;
20711;SDS011;10517;50.742;4.224;2023-04-16T00:39:34;2.87;;;2.43;;
20711;SDS011;10517;50.742;4.224;2023-04-16T00:42:00;3.27;;;2.17;;
20711;SDS011;10517;50.742;4.224;2023-04-16T00:44:25;4.83;;;2.53;;
20711;SDS011;10517;50.742;4.224;2023-04-16T00:46:51;4.07;;;1.80;;
20711;SDS011;10517;50.742;4.224;2023-04-16T00:49:17;2.87;;;2.03;;
20711;SDS011;10517;50.742;4.224;2023-04-16T00:51:43;7.30;;;2.23;;
20711;SDS011;10517;50.742;4.224;2023-04-16T00:54:08;3.80;;;2.70;;
20711;SDS011;10517;50.742;4.224;2023-04-16T00:56:34;2.87;;;1.90;;
20711;SDS011;10517;50.742;4.224;2023-04-16T00:59:00;3.63;;;1.93;;
20711;SDS011;10517;50.742;4.224;2023-04-16T01:01:26;9.00;;;2.10;;
20711;SDS011;10517;50.742;4.224;2023-04-16T01:03:52;3.60;;;2.20;;
20711;SDS011;10517;50.742;4.224;2023-04-16T01:06:20;3.77;;;2.23;;
20711;SDS011;10517;50.742;4.224;2023-04-16T01:08:46;2.87;;;2.67;;
20711;SDS011;10517;50.742;4.224;2023-04-16T01:11:13;3.83;;;2.17;;
20711;SDS011;10517;50.742;4.224;2023-04-16T01:13:39;3.13;;;2.37;;
20711;SDS011;10517;50.742;4.224;2023-04-16T01:16:05;5.03;;;3.00;;
20711;SDS011;10517;50.742;4.224;2023-04-16T01:18:32;8.37;;;2.57;;
20711;SDS011;10517;50.742;4.224;2023-04-16T01:20:58;4.30;;;2.17;;
20711;SDS011;10517;50.742;4.224;2023-04-16T01:23:24;4.77;;;2.33;;
20711;SDS011;10517;50.742;4.224;2023-04-16T01:25:49;7.67;;;2.40;;
20711;SDS011;10517;50.742;4.224;2023-04-16T01:28:15;7.03;;;2.47;;
20711;SDS011;10517;50.742;4.224;2023-04-16T01:30:41;6.37;;;2.93;;
20711;SDS011;10517;50.742;4.224;2023-04-16T01:33:09;4.50;;;2.07;;
20711;SDS011;10517;50.742;4.224;2023-04-16T01:35:35;5.13;;;2.27;;
20711;SDS011;10517;50.742;4.224;2023-04-16T01:38:01;6.60;;;2.30;;
20711;SDS011;10517;50.742;4.224;2023-04-16T01:40:27;7.33;;;1.97;;
20711;SDS011;10517;50.742;4.224;2023-04-16T01:42:52;5.30;;;2.40;;
20711;SDS011;10517;50.742;4.224;2023-04-16T01:45:18;4.60;;;2.07;;
20711;SDS011;10517;50.742;4.224;2023-04-16T01:47:43;2.83;;;2.10;;
20711;SDS011;10517;50.742;4.224;2023-04-16T01:50:09;5.60;;;2.10;;
20711;SDS011;10517;50.742;4.224;2023-04-16T01:52:35;5.60;;;2.37;;
20711;SDS011;10517;50.742;4.224;2023-04-16T01:55:01;11.30;;;1.93;;
20711;SDS011;10517;50.742;4.224;2023-04-16T01:57:27;3.87;;;2.50;;
20711;SDS011;10517;50.742;4.224;2023-04-16T01:59:53;3.43;;;1.80;;
20711;SDS011;10517;50.742;4.224;2023-04-16T02:02:18;5.70;;;2.33;;
20711;SDS011;10517;50.742;4.224;2023-04-16T02:04:44;5.07;;;2.20;;
20711;SDS011;10517;50.742;4.224;2023-04-16T02:07:10;6.57;;;2.77;;
20711;SDS011;10517;50.742;4.224;2023-04-16T02:09:37;3.70;;;2.07;;
20711;SDS011;10517;50.742;4.224;2023-04-16T02:12:04;7.23;;;2.33;;
20711;SDS011;10517;50.742;4.224;2023-04-16T02:14:30;2.20;;;2.00;;
20711;SDS011;10517;50.742;4.224;2023-04-16T02:16:56;4.00;;;2.30;;
20711;SDS011;10517;50.742;4.224;2023-04-16T02:19:22;6.03;;;1.90;;
20711;SDS011;10517;50.742;4.224;2023-04-16T02:21:50;2.60;;;2.00;;
20711;SDS011;10517;50.742;4.224;2023-04-16T02:24:16;3.57;;;1.60;;
20711;SDS011;10517;50.742;4.224;2023-04-16T02:26:42;2.37;;;1.50;;
20711;SDS011;10517;50.742;4.224;2023-04-16T02:29:08;5.03;;;1.50;;
20711;SDS011;10517;50.742;4.224;2023-04-16T02:31:34;2.03;;;1.50;;
20711;SDS011;10517;50.742;4.224;2023-04-16T02:33:59;1.30;;;1.20;;
20711;SDS011;10517;50.742;4.224;2023-04-16T02:36:25;3.77;;;1.60;;
20711;SDS011;10517;50.742;4.224;2023-04-16T02:38:51;1.67;;;1.20;;
20711;SDS011;10517;50.742;4.224;2023-04-16T02:41:17;3.50;;;1.30;;
20711;SDS011;10517;50.742;4.224;2023-04-16T02:43:42;2.00;;;1.00;;
20711;SDS011;10517;50.742;4.224;2023-04-16T02:46:08;2.43;;;1.17;;
20711;SDS011;10517;50.742;4.224;2023-04-16T02:48:33;4.43;;;1.00;;
20711;SDS011;10517;50.742;4.224;2023-04-16T02:50:59;2.20;;;0.70;;
20711;SDS011;10517;50.742;4.224;2023-04-16T02:53:25;1.50;;;0.87;;
20711;SDS011;10517;50.742;4.224;2023-04-16T02:55:51;1.17;;;1.07;;
20711;SDS011;10517;50.742;4.224;2023-04-16T02:58:20;1.07;;;0.60;;
20711;SDS011;10517;50.742;4.224;2023-04-16T03:00:47;4.00;;;0.60;;
20711;SDS011;10517;50.742;4.224;2023-04-16T03:03:13;3.30;;;0.83;;
20711;SDS011;10517;50.742;4.224;2023-04-16T03:05:39;0.80;;;0.50;;
20711;SDS011;10517;50.742;4.224;2023-04-16T03:08:05;2.57;;;0.60;;
20711;SDS011;10517;50.742;4.224;2023-04-16T03:10:31;0.87;;;0.60;;
20711;SDS011;10517;50.742;4.224;2023-04-16T03:12:57;0.60;;;0.60;;
20711;SDS011;10517;50.742;4.224;2023-04-16T03:15:22;4.20;;;0.70;;
20711;SDS011;10517;50.742;4.224;2023-04-16T03:17:49;3.10;;;0.50;;
20711;SDS011;10517;50.742;4.224;2023-04-16T03:20:15;0.57;;;0.57;;
20711;SDS011;10517;50.742;4.224;2023-04-16T03:22:44;0.83;;;0.30;;
20711;SDS011;10517;50.742;4.224;2023-04-16T03:25:13;1.70;;;0.40;;
20711;SDS011;10517;50.742;4.224;2023-04-16T03:27:38;4.73;;;0.60;;
20711;SDS011;10517;50.742;4.224;2023-04-16T03:30:09;1.23;;;0.70;;
20711;SDS011;10517;50.742;4.224;2023-04-16T03:32:36;2.67;;;0.63;;
20711;SDS011;10517;50.742;4.224;2023-04-16T03:35:02;0.73;;;0.47;;
20711;SDS011;10517;50.742;4.224;2023-04-16T03:37:29;1.80;;;0.57;;
20711;SDS011;10517;50.742;4.224;2023-04-16T03:39:54;2.43;;;0.87;;
20711;SDS011;10517;50.742;4.224;2023-04-16T03:42:20;7.93;;;0.90;;
20711;SDS011;10517;50.742;4.224;2023-04-16T03:44:46;1.33;;;0.70;;
20711;SDS011;10517;50.742;4.224;2023-04-16T03:47:11;4.53;;;0.57;;
20711;SDS011;10517;50.742;4.224;2023-04-16T03:49:37;1.73;;;0.80;;
20711;SDS011;10517;50.742;4.224;2023-04-16T03:52:02;3.00;;;0.70;;
20711;SDS011;10517;50.742;4.224;2023-04-16T03:54:28;2.63;;;1.10;;
20711;SDS011;10517;50.742;4.224;2023-04-16T03:56:53;3.00;;;1.07;;
20711;SDS011;10517;50.742;4.224;2023-04-16T03:59:19;1.80;;;0.67;;
20711;SDS011;10517;50.742;4.224;2023-04-16T04:01:44;1.47;;;0.70;;
20711;SDS011;10517;50.742;4.224;2023-04-16T04:04:10;1.00;;;0.70;;
20711;SDS011;10517;50.742;4.224;2023-04-16T04:06:36;5.47;;;0.83;;
20711;SDS011;10517;50.742;4.224;2023-04-16T04:09:02;1.70;;;1.17;;
20711;SDS011;10517;50.742;4.224;2023-04-16T04:11:27;4.23;;;1.03;;
20711;SDS011;10517;50.742;4.224;2023-04-16T04:13:53;1.97;;;0.77;;
20711;SDS011;10517;50.742;4.224;2023-04-16T04:16:19;1.10;;;1.00;;
20711;SDS011;10517;50.742;4.224;2023-04-16T04:18:44;1.90;;;1.10;;
20711;SDS011;10517;50.742;4.224;2023-04-16T04:21:10;2.93;;;1.07;;
20711;SDS011;10517;50.742;4.224;2023-04-16T04:23:36;3.40;;;1.03;;
20711;SDS011;10517;50.742;4.224;2023-04-16T04:26:02;6.33;;;1.30;;
20711;SDS011;10517;50.742;4.224;2023-04-16T04:28:29;7.93;;;0.90;;
20711;SDS011;10517;50.742;4.224;2023-04-16T04:30:56;5.27;;;1.37;;
20711;SDS011;10517;50.742;4.224;2023-04-16T04:33:22;1.70;;;0.80;;
20711;SDS011;10517;50.742;4.224;2023-04-16T04:35:49;8.43;;;1.20;;
20711;SDS011;10517;50.742;4.224;2023-04-16T04:38:15;5.93;;;1.17;;
20711;SDS011;10517;50.742;4.224;2023-04-16T04:40:43;2.57;;;1.03;;
20711;SDS011;10517;50.742;4.224;2023-04-16T04:43:09;3.63;;;1.90;;
20711;SDS011;10517;50.742;4.224;2023-04-16T04:45:35;5.73;;;1.20;;
20711;SDS011;10517;50.742;4.224;2023-04-16T04:48:01;4.27;;;1.00;;
20711;SDS011;10517;50.742;4.224;2023-04-16T04:50:26;9.07;;;1.13;;
20711;SDS011;10517;50.742;4.224;2023-04-16T04:52:52;4.53;;;0.90;;
20711;SDS011;10517;50.742;4.224;2023-04-16T04:55:17;5.63;;;0.93;;
20711;SDS011;10517;50.742;4.224;2023-04-16T04:57:43;7.17;;;1.20;;
20711;SDS011;10517;50.742;4.224;2023-04-16T05:00:09;2.33;;;0.83;;
20711;SDS011;10517;50.742;4.224;2023-04-16T05:02:35;3.83;;;0.70;;
20711;SDS011;10517;50.742;4.224;2023-04-16T05:05:01;2.83;;;1.20;;
20711;SDS011;10517;50.742;4.224;2023-04-16T05:07:27;8.13;;;1.10;;
20711;SDS011;10517;50.742;4.224;2023-04-16T05:09:52;1.07;;;0.80;;
20711;SDS011;10517;50.742;4.224;2023-04-16T05:12:18;5.97;;;1.17;;
20711;SDS011;10517;50.742;4.224;2023-04-16T05:14:44;5.77;;;1.07;;
20711;SDS011;10517;50.742;4.224;2023-04-16T05:17:09;7.70;;;1.00;;
20711;SDS011;10517;50.742;4.224;2023-04-16T05:19:35;8.83;;;1.13;;
20711;SDS011;10517;50.742;4.224;2023-04-16T05:22:01;2.50;;;0.80;;
20711;SDS011;10517;50.742;4.224;2023-04-16T05:24:27;2.97;;;0.87;;
20711;SDS011;10517;50.742;4.224;2023-04-16T05:26:53;1.37;;;0.90;;
20711;SDS011;10517;50.742;4.224;2023-04-16T05:29:19;6.67;;;0.77;;
20711;SDS011;10517;50.742;4.224;2023-04-16T05:31:44;3.33;;;1.03;;
20711;SDS011;10517;50.742;4.224;2023-04-16T05:34:10;8.33;;;0.80;;
20711;SDS011;10517;50.742;4.224;2023-04-16T05:36:36;2.27;;;0.63;;
20711;SDS011;10517;50.742;4.224;2023-04-16T05:39:01;3.33;;;1.57;;
20711;SDS011;10517;50.742;4.224;2023-04-16T05:41:27;1.60;;;1.30;;
20711;SDS011;10517;50.742;4.224;2023-04-16T05:43:53;1.83;;;0.90;;
20711;SDS011;10517;50.742;4.224;2023-04-16T05:46:18;7.90;;;1.00;;
20711;SDS011;10517;50.742;4.224;2023-04-16T05:48:44;5.67;;;1.20;;
20711;SDS011;10517;50.742;4.224;2023-04-16T05:51:10;4.47;;;0.97;;
20711;SDS011;10517;50.742;4.224;2023-04-16T05:53:36;3.43;;;0.87;;
20711;SDS011;10517;50.742;4.224;2023-04-16T05:56:01;6.87;;;1.73;;
20711;SDS011;10517;50.742;4.224;2023-04-16T05:58:27;5.00;;;0.70;;
20711;SDS011;10517;50.742;4.224;2023-04-16T06:00:52;4.50;;;2.20;;
20711;SDS011;10517;50.742;4.224;2023-04-16T06:03:18;3.63;;;0.83;;
20711;SDS011;10517;50.742;4.224;2023-04-16T06:05:44;3.27;;;1.00;;
20711;SDS011;10517;50.742;4.224;2023-04-16T06:08:10;3.60;;;0.90;;
20711;SDS011;10517;50.742;4.224;2023-04-16T06:10:35;3.07;;;0.80;;
20711;SDS011;10517;50.742;4.224;2023-04-16T06:13:01;4.17;;;0.80;;
20711;SDS011;10517;50.742;4.224;2023-04-16T06:15:27;1.87;;;1.07;;
20711;SDS011;10517;50.742;4.224;2023-04-16T06:17:53;2.23;;;0.83;;
20711;SDS011;10517;50.742;4.224;2023-04-16T06:20:19;4.00;;;0.83;;
20711;SDS011;10517;50.742;4.224;2023-04-16T06:22:45;5.07;;;1.27;;
20711;SDS011;10517;50.742;4.224;2023-04-16T06:25:10;5.77;;;1.37;;
20711;SDS011;10517;50.742;4.224;2023-04-16T06:27:36;1.30;;;0.93;;
20711;SDS011;10517;50.742;4.224;2023-04-16T06:30:02;2.03;;;1.00;;
20711;SDS011;10517;50.742;4.224;2023-04-16T06:32:27;4.73;;;0.90;;
20711;SDS011;10517;50.742;4.224;2023-04-16T06:34:53;3.10;;;1.10;;
20711;SDS011;10517;50.742;4.224;2023-04-16T06:37:20;2.40;;;1.13;;
20711;SDS011;10517;50.742;4.224;2023-04-16T06:39:45;2.17;;;1.00;;
20711;SDS011;10517;50.742;4.224;2023-04-16T06:42:11;2.63;;;1.20;;
20711;SDS011;10517;50.742;4.224;2023-04-16T06:44:36;2.83;;;1.00;;
20711;SDS011;10517;50.742;4.224;2023-04-16T06:47:02;2.93;;;1.10;;
20711;SDS011;10517;50.742;4.224;2023-04-16T06:49:28;2.10;;;0.87;;
20711;SDS011;10517;50.742;4.224;2023-04-16T06:51:53;4.80;;;1.50;;
20711;SDS011;10517;50.742;4.224;2023-04-16T06:54:19;6.27;;;1.50;;
20711;SDS011;10517;50.742;4.224;2023-04-16T06:56:44;2.20;;;1.17;;
20711;SDS011;10517;50.742;4.224;2023-04-16T06:59:10;2.43;;;1.10;;
20711;SDS011;10517;50.742;4.224;2023-04-16T07:01:36;4.40;;;1.33;;
20711;SDS011;10517;50.742;4.224;2023-04-16T07:04:01;7.77;;;1.23;;
20711;SDS011;10517;50.742;4.224;2023-04-16T07:06:27;5.73;;;1.20;;
20711;SDS011;10517;50.742;4.224;2023-04-16T07:08:53;1.53;;;1.07;;
20711;SDS011;10517;50.742;4.224;2023-04-16T07:11:18;3.83;;;1.50;;
20711;SDS011;10517;50.742;4.224;2023-04-16T07:13:44;6.63;;;1.50;;
20711;SDS011;10517;50.742;4.224;2023-04-16T07:16:10;3.37;;;1.60;;
20711;SDS011;10517;50.742;4.224;2023-04-16T07:18:36;7.17;;;1.20;;
20711;SDS011;10517;50.742;4.224;2023-04-16T07:21:01;2.87;;;1.53;;
20711;SDS011;10517;50.742;4.224;2023-04-16T07:23:28;5.03;;;1.27;;
20711;SDS011;10517;50.742;4.224;2023-04-16T07:25:54;2.00;;;1.13;;
20711;SDS011;10517;50.742;4.224;2023-04-16T07:28:19;3.50;;;1.53;;
20711;SDS011;10517;50.742;4.224;2023-04-16T07:30:45;3.60;;;1.60;;
20711;SDS011;10517;50.742;4.224;2023-04-16T07:33:11;7.30;;;1.73;;
20711;SDS011;10517;50.742;4.224;2023-04-16T07:35:36;8.33;;;1.53;;
20711;SDS011;10517;50.742;4.224;2023-04-16T07:38:02;7.07;;;2.07;;
20711;SDS011;10517;50.742;4.224;2023-04-16T07:40:27;4.93;;;1.37;;
20711;SDS011;10517;50.742;4.224;2023-04-16T07:42:53;2.60;;;1.80;;
20711;SDS011;10517;50.742;4.224;2023-04-16T07:45:19;3.10;;;1.50;;
20711;SDS011;10517;50.742;4.224;2023-04-16T07:47:45;4.00;;;2.30;;
20711;SDS011;10517;50.742;4.224;2023-04-16T07:50:11;3.97;;;1.70;;
20711;SDS011;10517;50.742;4.224;2023-04-16T07:52:37;2.13;;;1.50;;
20711;SDS011;10517;50.742;4.224;2023-04-16T07:55:05;3.70;;;1.73;;
20711;SDS011;10517;50.742;4.224;2023-04-16T07:57:32;6.73;;;1.87;;
20711;SDS011;10517;50.742;4.224;2023-04-16T07:59:57;3.03;;;1.60;;
20711;SDS011;10517;50.742;4.224;2023-04-16T08:02:23;8.20;;;1.90;;
20711;SDS011;10517;50.742;4.224;2023-04-16T08:04:49;4.23;;;2.90;;
20711;SDS011;10517;50.742;4.224;2023-04-16T08:07:14;5.63;;;2.23;;
20711;SDS011;10517;50.742;4.224;2023-04-16T08:09:47;4.60;;;1.80;;
20711;SDS011;10517;50.742;4.224;2023-04-16T08:12:14;4.40;;;1.90;;
20711;SDS011;10517;50.742;4.224;2023-04-16T08:14:41;3.10;;;2.40;;
20711;SDS011;10517;50.742;4.224;2023-04-16T08:17:07;5.13;;;3.00;;
20711;SDS011;10517;50.742;4.224;2023-04-16T08:19:33;6.30;;;3.00;;
20711;SDS011;10517;50.742;4.224;2023-04-16T08:21:58;5.53;;;2.97;;
20711;SDS011;10517;50.742;4.224;2023-04-16T08:24:24;6.03;;;2.83;;
20711;SDS011;10517;50.742;4.224;2023-04-16T08:26:50;4.37;;;2.60;;
20711;SDS011;10517;50.742;4.224;2023-04-16T08:29:15;6.63;;;2.87;;
20711;SDS011;10517;50.742;4.224;2023-04-16T08:31:41;4.73;;;2.70;;
20711;SDS011;10517;50.742;4.224;2023-04-16T08:34:07;7.37;;;3.07;;
20711;SDS011;10517;50.742;4.224;2023-04-16T08:36:35;5.77;;;3.17;;
20711;SDS011;10517;50.742;4.224;2023-04-16T08:39:01;6.13;;;2.80;;
20711;SDS011;10517;50.742;4.224;2023-04-16T08:41:26;9.47;;;3.07;;
20711;SDS011;10517;50.742;4.224;2023-04-16T08:43:56;8.43;;;2.67;;
20711;SDS011;10517;50.742;4.224;2023-04-16T08:46:24;12.90;;;3.17;;
20711;SDS011;10517;50.742;4.224;2023-04-16T08:48:51;7.53;;;3.60;;
20711;SDS011;10517;50.742;4.224;2023-04-16T08:51:22;6.17;;;2.63;;
20711;SDS011;10517;50.742;4.224;2023-04-16T08:53:51;5.93;;;3.00;;
20711;SDS011;10517;50.742;4.224;2023-04-16T08:56:22;7.97;;;3.63;;
20711;SDS011;10517;50.742;4.224;2023-04-16T08:58:49;10.27;;;2.60;;
20711;SDS011;10517;50.742;4.224;2023-04-16T09:01:16;6.27;;;2.63;;
20711;SDS011;10517;50.742;4.224;2023-04-16T09:03:46;7.83;;;2.80;;
20711;SDS011;10517;50.742;4.224;2023-04-16T09:06:12;9.03;;;3.20;;
20711;SDS011;10517;50.742;4.224;2023-04-16T09:08:37;6.40;;;2.93;;
20711;SDS011;10517;50.742;4.224;2023-04-16T09:11:04;6.03;;;3.67;;
20711;SDS011;10517;50.742;4.224;2023-04-16T09:13:30;8.00;;;2.60;;
20711;SDS011;10517;50.742;4.224;2023-04-16T09:15:56;7.77;;;2.70;;
20711;SDS011;10517;50.742;4.224;2023-04-16T09:18:22;7.93;;;3.53;;
20711;SDS011;10517;50.742;4.224;2023-04-16T09:20:48;4.43;;;2.93;;
20711;SDS011;10517;50.742;4.224;2023-04-16T09:23:15;8.23;;;2.90;;
20711;SDS011;10517;50.742;4.224;2023-04-16T09:25:41;5.83;;;2.93;;
20711;SDS011;10517;50.742;4.224;2023-04-16T09:28:07;5.23;;;2.80;;
20711;SDS011;10517;50.742;4.224;2023-04-16T09:30:34;5.23;;;2.63;;
20711;SDS011;10517;50.742;4.224;2023-04-16T09:33:17;6.13;;;2.50;;
20711;SDS011;10517;50.742;4.224;2023-04-16T09:35:47;3.83;;;2.40;;
20711;SDS011;10517;50.742;4.224;2023-04-16T09:38:15;6.93;;;2.30;;
20711;SDS011;10517;50.742;4.224;2023-04-16T09:40:41;5.07;;;3.00;;
20711;SDS011;10517;50.742;4.224;2023-04-16T09:43:10;5.10;;;2.77;;
20711;SDS011;10517;50.742;4.224;2023-04-16T09:45:49;5.67;;;3.47;;
20711;SDS011;10517;50.742;4.224;2023-04-16T09:48:26;7.67;;;2.80;;
20711;SDS011;10517;50.742;4.224;2023-04-16T09:50:53;6.17;;;3.17;;
20711;SDS011;10517;50.742;4.224;2023-04-16T09:53:29;8.80;;;3.43;;
20711;SDS011;10517;50.742;4.224;2023-04-16T09:55:56;5.60;;;2.90;;
20711;SDS011;10517;50.742;4.224;2023-04-16T09:58:26;7.73;;;3.43;;
20711;SDS011;10517;50.742;4.224;2023-04-16T10:01:08;8.33;;;3.30;;
20711;SDS011;10517;50.742;4.224;2023-04-16T10:03:36;4.17;;;2.60;;
20711;SDS011;10517;50.742;4.224;2023-04-16T10:06:16;7.57;;;2.50;;
20711;SDS011;10517;50.742;4.224;2023-04-16T10:08:50;11.17;;;2.60;;
20711;SDS011;10517;50.742;4.224;2023-04-16T10:11:21;3.63;;;2.77;;
20711;SDS011;10517;50.742;4.224;2023-04-16T10:13:47;4.33;;;2.93;;
20711;SDS011;10517;50.742;4.224;2023-04-16T10:16:12;4.07;;;2.83;;
20711;SDS011;10517;50.742;4.224;2023-04-16T10:18:39;9.77;;;3.07;;
20711;SDS011;10517;50.742;4.224;2023-04-16T10:21:06;6.83;;;2.70;;
20711;SDS011;10517;50.742;4.224;2023-04-16T10:23:35;6.47;;;3.10;;
20711;SDS011;10517;50.742;4.224;2023-04-16T10:26:03;5.80;;;3.13;;
20711;SDS011;10517;50.742;4.224;2023-04-16T10:28:30;5.03;;;2.73;;
20711;SDS011;10517;50.742;4.224;2023-04-16T10:30:59;7.33;;;2.23;;
20711;SDS011;10517;50.742;4.224;2023-04-16T10:33:30;3.93;;;2.27;;
20711;SDS011;10517;50.742;4.224;2023-04-16T10:36:13;6.97;;;2.63;;
20711;SDS011;10517;50.742;4.224;2023-04-16T10:38:50;4.17;;;2.27;;
20711;SDS011;10517;50.742;4.224;2023-04-16T10:41:18;3.07;;;2.10;;
20711;SDS011;10517;50.742;4.224;2023-04-16T10:43:46;3.57;;;2.30;;
20711;SDS011;10517;50.742;4.224;2023-04-16T10:48:49;2.60;;;2.20;;
20711;SDS011;10517;50.742;4.224;2023-04-16T10:53:52;9.47;;;2.30;;
20711;SDS011;10517;50.742;4.224;2023-04-16T10:56:25;11.30;;;1.90;;
20711;SDS011;10517;50.742;4.224;2023-04-16T10:58:52;5.17;;;2.00;;
20711;SDS011;10517;50.742;4.224;2023-04-16T11:01:22;3.70;;;2.53;;
20711;SDS011;10517;50.742;4.224;2023-04-16T11:03:55;6.23;;;2.40;;
20711;SDS011;10517;50.742;4.224;2023-04-16T11:06:24;4.17;;;2.47;;
20711;SDS011;10517;50.742;4.224;2023-04-16T11:08:51;7.87;;;2.80;;
20711;SDS011;10517;50.742;4.224;2023-04-16T11:11:17;13.53;;;2.80;;
20711;SDS011;10517;50.742;4.224;2023-04-16T11:13:43;6.40;;;2.17;;
20711;SDS011;10517;50.742;4.224;2023-04-16T11:16:10;2.97;;;1.80;;
20711;SDS011;10517;50.742;4.224;2023-04-16T11:18:37;2.47;;;2.10;;
20711;SDS011;10517;50.742;4.224;2023-04-16T11:21:07;9.97;;;2.83;;
20711;SDS011;10517;50.742;4.224;2023-04-16T11:23:49;4.70;;;2.50;;
20711;SDS011;10517;50.742;4.224;2023-04-16T11:28:49;5.30;;;3.03;;
20711;SDS011;10517;50.742;4.224;2023-04-16T11:31:15;3.83;;;1.97;;
20711;SDS011;10517;50.742;4.224;2023-04-16T11:33:41;9.10;;;2.67;;
20711;SDS011;10517;50.742;4.224;2023-04-16T11:36:07;5.90;;;2.73;;
20711;SDS011;10517;50.742;4.224;2023-04-16T11:38:34;7.13;;;2.80;;
20711;SDS011;10517;50.742;4.224;2023-04-16T11:41:01;10.70;;;3.33;;
20711;SDS011;10517;50.742;4.224;2023-04-16T11:43:26;7.20;;;2.93;;
20711;SDS011;10517;50.742;4.224;2023-04-16T11:48:25;5.63;;;3.57;;
20711;SDS011;10517;50.742;4.224;2023-04-16T11:51:10;16.07;;;4.90;;
20711;SDS011;10517;50.742;4.224;2023-04-16T11:53:35;10.03;;;2.83;;
20711;SDS011;10517;50.742;4.224;2023-04-16T11:56:09;6.60;;;3.60;;
20711;SDS011;10517;50.742;4.224;2023-04-16T11:58:34;5.57;;;2.93;;
20711;SDS011;10517;50.742;4.224;2023-04-16T12:01:00;15.20;;;3.93;;
20711;SDS011;10517;50.742;4.224;2023-04-16T12:03:38;6.37;;;3.40;;
20711;SDS011;10517;50.742;4.224;2023-04-16T12:06:07;6.50;;;3.47;;
20711;SDS011;10517;50.742;4.224;2023-04-16T12:08:33;7.33;;;2.90;;
20711;SDS011;10517;50.742;4.224;2023-04-16T12:10:59;7.47;;;3.37;;
20711;SDS011;10517;50.742;4.224;2023-04-16T12:13:25;4.67;;;2.57;;
20711;SDS011;10517;50.742;4.224;2023-04-16T12:15:51;8.23;;;3.30;;
20711;SDS011;10517;50.742;4.224;2023-04-16T12:18:19;9.67;;;3.20;;
20711;SDS011;10517;50.742;4.224;2023-04-16T12:20:47;3.80;;;2.80;;
20711;SDS011;10517;50.742;4.224;2023-04-16T12:23:25;4.73;;;2.67;;
20711;SDS011;10517;50.742;4.224;2023-04-16T12:25:53;9.33;;;3.13;;
20711;SDS011;10517;50.742;4.224;2023-04-16T12:28:32;7.07;;;3.17;;
20711;SDS011;10517;50.742;4.224;2023-04-16T12:30:58;8.80;;;3.83;;
20711;SDS011;10517;50.742;4.224;2023-04-16T12:33:25;15.03;;;5.10;;
20711;SDS011;10517;50.742;4.224;2023-04-16T12:35:51;8.27;;;3.47;;
20711;SDS011;10517;50.742;4.224;2023-04-16T12:38:16;8.73;;;3.80;;
20711;SDS011;10517;50.742;4.224;2023-04-16T12:40:42;6.10;;;3.20;;
20711;SDS011;10517;50.742;4.224;2023-04-16T12:43:08;12.07;;;4.17;;
20711;SDS011;10517;50.742;4.224;2023-04-16T12:45:34;7.80;;;3.70;;
20711;SDS011;10517;50.742;4.224;2023-04-16T12:48:00;12.47;;;3.97;;
20711;SDS011;10517;50.742;4.224;2023-04-16T12:50:25;6.40;;;4.33;;
20711;SDS011;10517;50.742;4.224;2023-04-16T12:52:52;9.67;;;4.40;;
20711;SDS011;10517;50.742;4.224;2023-04-16T12:55:19;7.27;;;3.20;;
20711;SDS011;10517;50.742;4.224;2023-04-16T12:57:45;6.10;;;3.43;;
20711;SDS011;10517;50.742;4.224;2023-04-16T13:00:12;9.37;;;3.70;;
20711;SDS011;10517;50.742;4.224;2023-04-16T13:02:38;7.82;;;3.67;;
20711;SDS011;10517;50.742;4.224;2023-04-16T13:05:05;12.03;;;3.87;;
20711;SDS011;10517;50.742;4.224;2023-04-16T13:07:31;8.55;;;3.70;;
20711;SDS011;10517;50.742;4.224;2023-04-16T13:09:58;7.65;;;2.88;;
20711;SDS011;10517;50.742;4.224;2023-04-16T13:12:24;6.95;;;3.65;;
20711;SDS011;10517;50.742;4.224;2023-04-16T13:14:51;8.38;;;3.72;;
20711;SDS011;10517;50.742;4.224;2023-04-16T13:17:16;9.40;;;3.53;;
20711;SDS011;10517;50.742;4.224;2023-04-16T13:19:42;8.50;;;3.20;;
20711;SDS011;10517;50.742;4.224;2023-04-16T13:22:08;13.77;;;4.30;;
20711;SDS011;10517;50.742;4.224;2023-04-16T13:24:33;5.80;;;3.15;;
20711;SDS011;10517;50.742;4.224;2023-04-16T13:26:59;7.37;;;3.10;;
20711;SDS011;10517;50.742;4.224;2023-04-16T13:29:25;10.27;;;3.97;;
20711;SDS011;10517;50.742;4.224;2023-04-16T13:31:51;15.93;;;3.77;;
20711;SDS011;10517;50.742;4.224;2023-04-16T13:34:16;10.37;;;3.40;;
20711;SDS011;10517;50.742;4.224;2023-04-16T13:36:42;8.23;;;3.80;;
20711;SDS011;10517;50.742;4.224;2023-04-16T13:39:08;7.00;;;3.53;;
20711;SDS011;10517;50.742;4.224;2023-04-16T13:41:36;7.68;;;3.40;;
20711;SDS011;10517;50.742;4.224;2023-04-16T13:44:02;9.63;;;3.53;;
20711;SDS011;10517;50.742;4.224;2023-04-16T13:46:28;9.48;;;3.28;;
20711;SDS011;10517;50.742;4.224;2023-04-16T13:48:54;9.43;;;3.72;;
20711;SDS011;10517;50.742;4.224;2023-04-16T13:51:20;7.40;;;3.78;;
20711;SDS011;10517;50.742;4.224;2023-04-16T13:53:46;5.25;;;3.22;;
20711;SDS011;10517;50.742;4.224;2023-04-16T13:56:12;6.75;;;3.45;;
20711;SDS011;10517;50.742;4.224;2023-04-16T13:58:37;8.85;;;3.78;;
20711;SDS011;10517;50.742;4.224;2023-04-16T14:01:03;7.70;;;3.78;;
20711;SDS011;10517;50.742;4.224;2023-04-16T14:03:29;6.70;;;3.50;;
20711;SDS011;10517;50.742;4.224;2023-04-16T14:05:59;3.97;;;2.80;;
20711;SDS011;10517;50.742;4.224;2023-04-16T14:08:25;6.85;;;3.28;;
20711;SDS011;10517;50.742;4.224;2023-04-16T14:10:51;7.40;;;3.38;;
20711;SDS011;10517;50.742;4.224;2023-04-16T14:13:18;5.88;;;4.05;;
20711;SDS011;10517;50.742;4.224;2023-04-16T14:15:43;7.40;;;3.35;;
20711;SDS011;10517;50.742;4.224;2023-04-16T14:18:09;7.78;;;4.38;;
20711;SDS011;10517;50.742;4.224;2023-04-16T14:20:35;8.48;;;4.45;;
20711;SDS011;10517;50.742;4.224;2023-04-16T14:23:00;10.18;;;4.28;;
20711;SDS011;10517;50.742;4.224;2023-04-16T14:25:26;7.75;;;4.00;;
20711;SDS011;10517;50.742;4.224;2023-04-16T14:27:52;10.65;;;5.13;;
20711;SDS011;10517;50.742;4.224;2023-04-16T14:30:18;10.93;;;3.72;;
20711;SDS011;10517;50.742;4.224;2023-04-16T14:32:44;9.43;;;4.03;;
20711;SDS011;10517;50.742;4.224;2023-04-16T14:35:09;7.63;;;3.63;;
20711;SDS011;10517;50.742;4.224;2023-04-16T14:37:35;9.65;;;3.97;;
20711;SDS011;10517;50.742;4.224;2023-04-16T14:40:01;6.82;;;4.28;;
20711;SDS011;10517;50.742;4.224;2023-04-16T14:42:31;9.50;;;3.97;;
20711;SDS011;10517;50.742;4.224;2023-04-16T14:44:57;5.35;;;4.07;;
20711;SDS011;10517;50.742;4.224;2023-04-16T14:47:22;5.22;;;3.33;;
20711;SDS011;10517;50.742;4.224;2023-04-16T14:49:48;6.05;;;3.75;;
20711;SDS011;10517;50.742;4.224;2023-04-16T14:52:13;6.13;;;3.45;;
20711;SDS011;10517;50.742;4.224;2023-04-16T14:54:39;9.10;;;3.75;;